Pone, Texas
Current Conditions -  °F | °C
As of 8:15 AM on Friday 19 Dec 2014 (Local Time) from KRFI Reporting Station
Moderate Rain Moderate Rain  
Wind Chill: 44°   Ceiling: 500
Heat Index: 47°   Visibility: 3mi
Dew Point: 47°   Wind: 7mph
Humidity: 100%   Direction: 350°N
Pressure: 30.19"   Gusts: NA
Location:  31.9447°N, 94.855°W
Report Text: KRFI 191415Z AUTO 35006KT 3SM RA OVC005 08/08 A3019 RMK AO2 T00830083
Loading
Personal Weather Stations






























Interactive Weather Map New forecast layout! Learn more

10-Day Weather Forecast

Advertisements
Track Severe Weather on mobile